sensor_id;sensor_type;location;lat;lon;timestamp;pressure;altitude;pressure_sealevel;temperature;humidity
75538;BME280;64121;48.666;8.114;2023-05-29T00:02:18;99959.72;;;13.81;70.17
75538;BME280;64121;48.666;8.114;2023-05-29T00:04:45;99954.91;;;13.59;71.04
75538;BME280;64121;48.666;8.114;2023-05-29T00:07:10;99960.97;;;13.64;70.67
75538;BME280;64121;48.666;8.114;2023-05-29T00:09:36;99956.34;;;13.53;72.06
75538;BME280;64121;48.666;8.114;2023-05-29T00:12:01;99957.03;;;13.46;71.32
75538;BME280;64121;48.666;8.114;2023-05-29T00:14:26;99946.59;;;13.43;71.57
75538;BME280;64121;48.666;8.114;2023-05-29T00:16:52;99950.69;;;13.49;71.59
75538;BME280;64121;48.666;8.114;2023-05-29T00:19:17;99951.38;;;13.43;73.05
75538;BME280;64121;48.666;8.114;2023-05-29T00:21:44;99945.50;;;13.28;72.43
75538;BME280;64121;48.666;8.114;2023-05-29T00:24:09;99943.38;;;13.22;72.65
75538;BME280;64121;48.666;8.114;2023-05-29T00:26:34;99945.16;;;13.14;73.03
75538;BME280;64121;48.666;8.114;2023-05-29T00:29:00;99942.53;;;13.02;73.77
75538;BME280;64121;48.666;8.114;2023-05-29T00:31:25;99941.13;;;13.12;73.23
75538;BME280;64121;48.666;8.114;2023-05-29T00:33:50;99945.16;;;13.14;73.77
75538;BME280;64121;48.666;8.114;2023-05-29T00:36:16;99939.03;;;12.89;74.90
75538;BME280;64121;48.666;8.114;2023-05-29T00:38:43;99943.38;;;12.87;75.30
75538;BME280;64121;48.666;8.114;2023-05-29T00:41:13;99952.28;;;12.92;74.52
75538;BME280;64121;48.666;8.114;2023-05-29T00:43:39;99945.16;;;12.95;74.96
75538;BME280;64121;48.666;8.114;2023-05-29T00:46:04;99951.09;;;12.93;74.73
75538;BME280;64121;48.666;8.114;2023-05-29T00:48:30;99953.31;;;13.03;74.55
75538;BME280;64121;48.666;8.114;2023-05-29T00:50:55;99940.16;;;13.04;74.80
75538;BME280;64121;48.666;8.114;2023-05-29T00:53:21;99937.00;;;12.86;75.01
75538;BME280;64121;48.666;8.114;2023-05-29T00:55:49;99939.34;;;12.84;74.74
75538;BME280;64121;48.666;8.114;2023-05-29T00:58:15;99941.78;;;12.86;74.91
75538;BME280;64121;48.666;8.114;2023-05-29T01:00:41;99941.22;;;12.80;75.13
75538;BME280;64121;48.666;8.114;2023-05-29T01:03:07;99939.75;;;12.67;76.59
75538;BME280;64121;48.666;8.114;2023-05-29T01:05:34;99933.16;;;12.59;75.50
75538;BME280;64121;48.666;8.114;2023-05-29T01:07:59;99931.03;;;12.53;76.37
75538;BME280;64121;48.666;8.114;2023-05-29T01:10:25;99932.56;;;12.50;76.14
75538;BME280;64121;48.666;8.114;2023-05-29T01:12:57;99927.06;;;12.54;76.41
75538;BME280;64121;48.666;8.114;2023-05-29T01:15:35;99931.13;;;12.40;77.15
75538;BME280;64121;48.666;8.114;2023-05-29T01:18:09;99928.97;;;12.50;76.57
75538;BME280;64121;48.666;8.114;2023-05-29T01:20:37;99933.03;;;12.52;76.85
75538;BME280;64121;48.666;8.114;2023-05-29T01:23:13;99927.00;;;12.50;76.73
75538;BME280;64121;48.666;8.114;2023-05-29T01:25:58;99927.38;;;12.49;76.53
75538;BME280;64121;48.666;8.114;2023-05-29T01:28:34;99931.13;;;12.40;77.03
75538;BME280;64121;48.666;8.114;2023-05-29T01:31:03;99936.28;;;12.38;77.39
75538;BME280;64121;48.666;8.114;2023-05-29T01:33:29;99942.88;;;12.15;78.89
75538;BME280;64121;48.666;8.114;2023-05-29T01:35:54;99948.97;;;12.20;78.74
75538;BME280;64121;48.666;8.114;2023-05-29T01:38:19;99947.56;;;12.10;78.32
75538;BME280;64121;48.666;8.114;2023-05-29T01:40:45;99957.78;;;12.22;78.32
75538;BME280;64121;48.666;8.114;2023-05-29T01:43:12;99957.25;;;12.17;78.29
75538;BME280;64121;48.666;8.114;2023-05-29T01:45:39;99957.19;;;12.13;78.14
75538;BME280;64121;48.666;8.114;2023-05-29T01:48:05;99949.25;;;11.99;78.71
75538;BME280;64121;48.666;8.114;2023-05-29T01:50:31;99957.91;;;11.94;79.39
75538;BME280;64121;48.666;8.114;2023-05-29T01:52:56;99957.03;;;11.78;79.50
75538;BME280;64121;48.666;8.114;2023-05-29T01:55:22;99960.31;;;11.80;79.52
75538;BME280;64121;48.666;8.114;2023-05-29T01:57:48;99952.84;;;11.84;79.31
75538;BME280;64121;48.666;8.114;2023-05-29T02:00:16;99954.88;;;11.71;80.28
75538;BME280;64121;48.666;8.114;2023-05-29T02:02:43;99960.31;;;11.68;79.30
75538;BME280;64121;48.666;8.114;2023-05-29T02:05:09;99951.25;;;11.71;79.68
75538;BME280;64121;48.666;8.114;2023-05-29T02:07:35;99958.91;;;11.74;80.17
75538;BME280;64121;48.666;8.114;2023-05-29T02:10:00;99957.16;;;11.53;81.11
75538;BME280;64121;48.666;8.114;2023-05-29T02:12:25;99959.03;;;11.49;82.35
75538;BME280;64121;48.666;8.114;2023-05-29T02:14:51;99960.63;;;11.35;81.54
75538;BME280;64121;48.666;8.114;2023-05-29T02:17:16;99958.28;;;11.37;82.24
75538;BME280;64121;48.666;8.114;2023-05-29T02:19:43;99960.84;;;11.30;82.48
75538;BME280;64121;48.666;8.114;2023-05-29T02:22:08;99958.06;;;11.30;82.33
75538;BME280;64121;48.666;8.114;2023-05-29T02:24:33;99967.59;;;11.29;82.15
75538;BME280;64121;48.666;8.114;2023-05-29T02:26:59;99969.38;;;11.21;82.46
75538;BME280;64121;48.666;8.114;2023-05-29T02:29:24;99959.25;;;11.29;82.23
75538;BME280;64121;48.666;8.114;2023-05-29T02:31:49;99964.34;;;11.27;83.42
75538;BME280;64121;48.666;8.114;2023-05-29T02:34:15;99958.13;;;11.17;82.44
75538;BME280;64121;48.666;8.114;2023-05-29T02:36:41;99962.41;;;11.15;82.55
75538;BME280;64121;48.666;8.114;2023-05-29T02:39:07;99962.41;;;11.15;83.17
75538;BME280;64121;48.666;8.114;2023-05-29T02:41:32;99959.03;;;11.21;83.24
75538;BME280;64121;48.666;8.114;2023-05-29T02:43:58;99948.09;;;11.29;82.81
75538;BME280;64121;48.666;8.114;2023-05-29T02:46:23;99956.19;;;11.34;82.43
75538;BME280;64121;48.666;8.114;2023-05-29T02:48:48;99958.28;;;11.37;81.72
75538;BME280;64121;48.666;8.114;2023-05-29T02:51:14;99959.91;;;11.38;82.03
75538;BME280;64121;48.666;8.114;2023-05-29T02:53:40;99962.25;;;11.36;81.81
75538;BME280;64121;48.666;8.114;2023-05-29T02:56:07;99967.69;;;11.32;81.85
75538;BME280;64121;48.666;8.114;2023-05-29T02:58:32;99969.94;;;11.27;82.28
75538;BME280;64121;48.666;8.114;2023-05-29T03:00:57;99968.03;;;11.31;82.04
75538;BME280;64121;48.666;8.114;2023-05-29T03:03:23;99967.94;;;11.27;82.02
75538;BME280;64121;48.666;8.114;2023-05-29T03:05:48;99974.84;;;11.17;82.63
75538;BME280;64121;48.666;8.114;2023-05-29T03:08:13;99974.63;;;11.10;83.99
75538;BME280;64121;48.666;8.114;2023-05-29T03:10:40;99975.13;;;11.00;84.04
75538;BME280;64121;48.666;8.114;2023-05-29T03:13:06;99983.38;;;10.84;84.03
75538;BME280;64121;48.666;8.114;2023-05-29T03:15:31;99980.97;;;10.83;84.83
75538;BME280;64121;48.666;8.114;2023-05-29T03:17:56;99980.50;;;10.81;84.47
75538;BME280;64121;48.666;8.114;2023-05-29T03:20:22;99972.34;;;10.88;84.57
75538;BME280;64121;48.666;8.114;2023-05-29T03:22:47;99973.41;;;10.83;85.01
75538;BME280;64121;48.666;8.114;2023-05-29T03:25:12;99975.16;;;10.76;84.74
75538;BME280;64121;48.666;8.114;2023-05-29T03:27:39;99980.38;;;10.77;84.94
75538;BME280;64121;48.666;8.114;2023-05-29T03:30:05;99977.38;;;10.70;85.00
75538;BME280;64121;48.666;8.114;2023-05-29T03:32:31;99980.38;;;10.77;85.34
75538;BME280;64121;48.666;8.114;2023-05-29T03:34:56;99982.13;;;10.70;85.44
75538;BME280;64121;48.666;8.114;2023-05-29T03:37:22;99980.75;;;10.64;86.35
75538;BME280;64121;48.666;8.114;2023-05-29T03:39:47;99979.13;;;10.63;85.99
75538;BME280;64121;48.666;8.114;2023-05-29T03:42:13;99975.28;;;10.67;85.40
75538;BME280;64121;48.666;8.114;2023-05-29T03:44:39;99974.03;;;10.65;85.87
75538;BME280;64121;48.666;8.114;2023-05-29T03:47:05;99978.63;;;10.73;85.61
75538;BME280;64121;48.666;8.114;2023-05-29T03:49:30;99980.03;;;10.79;85.25
75538;BME280;64121;48.666;8.114;2023-05-29T03:51:56;99978.63;;;10.85;84.92
75538;BME280;64121;48.666;8.114;2023-05-29T03:54:21;99982.94;;;10.82;84.39
75538;BME280;64121;48.666;8.114;2023-05-29T03:56:46;99981.06;;;10.86;84.18
75538;BME280;64121;48.666;8.114;2023-05-29T03:59:12;99985.34;;;10.84;84.49
75538;BME280;64121;48.666;8.114;2023-05-29T04:01:38;99981.53;;;10.76;84.54
75538;BME280;64121;48.666;8.114;2023-05-29T04:04:04;99989.88;;;10.88;84.89
75538;BME280;64121;48.666;8.114;2023-05-29T04:06:29;99988.09;;;10.96;84.97
75538;BME280;64121;48.666;8.114;2023-05-29T04:08:54;99985.22;;;10.92;84.63
75538;BME280;64121;48.666;8.114;2023-05-29T04:11:20;99990.22;;;10.99;83.90
75538;BME280;64121;48.666;8.114;2023-05-29T04:13:45;99987.44;;;10.99;84.74
75538;BME280;64121;48.666;8.114;2023-05-29T04:16:11;99986.34;;;11.04;83.46
75538;BME280;64121;48.666;8.114;2023-05-29T04:18:37;99995.66;;;10.96;84.54
75538;BME280;64121;48.666;8.114;2023-05-29T04:21:03;99990.22;;;10.99;84.52
75538;BME280;64121;48.666;8.114;2023-05-29T04:23:28;100004.00;;;10.96;83.82
75538;BME280;64121;48.666;8.114;2023-05-29T04:25:53;100000.94;;;11.13;83.43
75538;BME280;64121;48.666;8.114;2023-05-29T04:28:19;100003.16;;;11.19;83.89
75538;BME280;64121;48.666;8.114;2023-05-29T04:30:44;100010.78;;;11.22;84.26
75538;BME280;64121;48.666;8.114;2023-05-29T04:33:09;100015.66;;;11.26;83.96
75538;BME280;64121;48.666;8.114;2023-05-29T04:35:36;100013.88;;;11.33;83.69
75538;BME280;64121;48.666;8.114;2023-05-29T04:38:01;100023.91;;;11.50;83.11
75538;BME280;64121;48.666;8.114;2023-05-29T04:40:27;100020.19;;;11.58;82.78
75538;BME280;64121;48.666;8.114;2023-05-29T04:42:52;100025.06;;;11.61;83.38
75538;BME280;64121;48.666;8.114;2023-05-29T04:45:19;100031.75;;;11.72;82.42
75538;BME280;64121;48.666;8.114;2023-05-29T04:47:44;100029.72;;;11.85;82.64
75538;BME280;64121;48.666;8.114;2023-05-29T04:50:10;100030.47;;;11.98;82.67
75538;BME280;64121;48.666;8.114;2023-05-29T04:52:37;100027.56;;;12.54;81.07
75538;BME280;64121;48.666;8.114;2023-05-29T04:55:03;100030.75;;;14.19;75.03
75538;BME280;64121;48.666;8.114;2023-05-29T04:57:28;100036.44;;;15.81;67.88
75538;BME280;64121;48.666;8.114;2023-05-29T04:59:54;100039.25;;;16.59;64.93
75538;BME280;64121;48.666;8.114;2023-05-29T05:02:19;100041.09;;;17.50;61.15
75538;BME280;64121;48.666;8.114;2023-05-29T05:04:44;100049.91;;;17.45;61.67
75538;BME280;64121;48.666;8.114;2023-05-29T05:07:10;100054.28;;;18.58;57.19
75538;BME280;64121;48.666;8.114;2023-05-29T05:09:36;100063.56;;;19.30;54.40
75538;BME280;64121;48.666;8.114;2023-05-29T05:12:02;100057.88;;;19.48;53.30
75538;BME280;64121;48.666;8.114;2023-05-29T05:14:27;100054.69;;;19.39;53.71
75538;BME280;64121;48.666;8.114;2023-05-29T05:16:53;100063.16;;;19.35;54.22
75538;BME280;64121;48.666;8.114;2023-05-29T05:19:18;100059.53;;;18.53;57.33
75538;BME280;64121;48.666;8.114;2023-05-29T05:21:43;100059.53;;;18.45;57.84
75538;BME280;64121;48.666;8.114;2023-05-29T05:24:09;100055.47;;;18.36;57.69
75538;BME280;64121;48.666;8.114;2023-05-29T05:26:35;100057.63;;;17.63;58.93
75538;BME280;64121;48.666;8.114;2023-05-29T05:29:01;100056.41;;;17.56;58.42
75538;BME280;64121;48.666;8.114;2023-05-29T05:31:26;100062.84;;;16.95;57.83
75538;BME280;64121;48.666;8.114;2023-05-29T05:33:52;100065.28;;;16.97;58.18
75538;BME280;64121;48.666;8.114;2023-05-29T05:36:17;100065.59;;;16.88;59.32
75538;BME280;64121;48.666;8.114;2023-05-29T05:38:42;100059.44;;;16.72;59.43
75538;BME280;64121;48.666;8.114;2023-05-29T05:41:08;100064.53;;;16.59;59.74
75538;BME280;64121;48.666;8.114;2023-05-29T05:43:34;100072.53;;;16.57;60.90
75538;BME280;64121;48.666;8.114;2023-05-29T05:46:00;100056.44;;;16.54;60.30
75538;BME280;64121;48.666;8.114;2023-05-29T05:48:25;100060.03;;;16.51;60.57
75538;BME280;64121;48.666;8.114;2023-05-29T05:50:50;100065.94;;;16.39;61.98
75538;BME280;64121;48.666;8.114;2023-05-29T05:53:16;100068.28;;;16.33;59.64
75538;BME280;64121;48.666;8.114;2023-05-29T05:55:41;100059.97;;;16.07;62.05
75538;BME280;64121;48.666;8.114;2023-05-29T05:58:06;100074.25;;;15.94;62.05
75538;BME280;64121;48.666;8.114;2023-05-29T06:00:33;100073.28;;;16.13;62.08
75538;BME280;64121;48.666;8.114;2023-05-29T06:02:58;100079.63;;;16.07;61.96
75538;BME280;64121;48.666;8.114;2023-05-29T06:05:24;100072.59;;;16.23;61.71
75538;BME280;64121;48.666;8.114;2023-05-29T06:07:49;100078.22;;;16.23;62.34
75538;BME280;64121;48.666;8.114;2023-05-29T06:10:14;100081.94;;;16.34;61.60
75538;BME280;64121;48.666;8.114;2023-05-29T06:12:40;100089.00;;;16.58;61.34
75538;BME280;64121;48.666;8.114;2023-05-29T06:15:06;100091.94;;;16.69;61.54
75538;BME280;64121;48.666;8.114;2023-05-29T06:17:33;100097.81;;;16.98;60.22
75538;BME280;64121;48.666;8.114;2023-05-29T06:19:59;100088.59;;;17.04;59.45
75538;BME280;64121;48.666;8.114;2023-05-29T06:22:24;100096.31;;;17.11;59.98
75538;BME280;64121;48.666;8.114;2023-05-29T06:24:49;100097.19;;;17.25;58.41
75538;BME280;64121;48.666;8.114;2023-05-29T06:27:14;100093.06;;;17.09;58.13
75538;BME280;64121;48.666;8.114;2023-05-29T06:29:40;100095.69;;;17.42;57.54
75538;BME280;64121;48.666;8.114;2023-05-29T06:32:05;100095.91;;;17.12;57.55
75538;BME280;64121;48.666;8.114;2023-05-29T06:34:32;100102.94;;;17.40;57.84
75538;BME280;64121;48.666;8.114;2023-05-29T06:36:57;100099.31;;;17.43;57.44
75538;BME280;64121;48.666;8.114;2023-05-29T06:39:22;100103.31;;;17.35;56.44
75538;BME280;64121;48.666;8.114;2023-05-29T06:41:48;100106.22;;;17.49;56.96
75538;BME280;64121;48.666;8.114;2023-05-29T06:44:13;100106.56;;;17.44;55.53
75538;BME280;64121;48.666;8.114;2023-05-29T06:46:39;100098.06;;;17.30;56.85
75538;BME280;64121;48.666;8.114;2023-05-29T06:49:04;100096.22;;;17.62;56.22
75538;BME280;64121;48.666;8.114;2023-05-29T06:51:31;100095.78;;;17.53;55.33
75538;BME280;64121;48.666;8.114;2023-05-29T06:53:56;100100.69;;;17.67;54.67
75538;BME280;64121;48.666;8.114;2023-05-29T06:56:21;100100.38;;;17.82;55.89
75538;BME280;64121;48.666;8.114;2023-05-29T06:58:47;100103.97;;;17.79;55.38
75538;BME280;64121;48.666;8.114;2023-05-29T07:01:12;100104.84;;;17.87;56.05
75538;BME280;64121;48.666;8.114;2023-05-29T07:03:38;100118.50;;;17.89;54.71
75538;BME280;64121;48.666;8.114;2023-05-29T07:06:04;100110.88;;;17.96;54.60
75538;BME280;64121;48.666;8.114;2023-05-29T07:08:31;100118.66;;;18.38;54.69
75538;BME280;64121;48.666;8.114;2023-05-29T07:10:56;100119.47;;;18.28;54.22
75538;BME280;64121;48.666;8.114;2023-05-29T07:13:21;100114.28;;;18.59;53.69
75538;BME280;64121;48.666;8.114;2023-05-29T07:15:48;100128.84;;;18.64;53.95
75538;BME280;64121;48.666;8.114;2023-05-29T07:18:13;100124.84;;;18.90;52.31
75538;BME280;64121;48.666;8.114;2023-05-29T07:20:39;100126.03;;;19.25;52.94
75538;BME280;64121;48.666;8.114;2023-05-29T07:23:04;100121.59;;;19.59;51.75
75538;BME280;64121;48.666;8.114;2023-05-29T07:25:31;100134.50;;;19.39;51.38
75538;BME280;64121;48.666;8.114;2023-05-29T07:27:57;100121.59;;;19.31;51.82
75538;BME280;64121;48.666;8.114;2023-05-29T07:30:22;100122.81;;;19.41;51.82
75538;BME280;64121;48.666;8.114;2023-05-29T07:32:47;100116.31;;;19.65;51.19
75538;BME280;64121;48.666;8.114;2023-05-29T07:35:13;100119.84;;;20.08;50.27
75538;BME280;64121;48.666;8.114;2023-05-29T07:37:38;100121.09;;;19.86;49.77
75538;BME280;64121;48.666;8.114;2023-05-29T07:40:04;100121.06;;;19.96;49.68
75538;BME280;64121;48.666;8.114;2023-05-29T07:42:31;100117.16;;;19.58;49.63
75538;BME280;64121;48.666;8.114;2023-05-29T07:44:56;100111.47;;;19.73;49.77
75538;BME280;64121;48.666;8.114;2023-05-29T07:47:22;100116.31;;;19.69;49.74
75538;BME280;64121;48.666;8.114;2023-05-29T07:49:47;100119.41;;;20.06;49.62
75538;BME280;64121;48.666;8.114;2023-05-29T07:52:12;100117.25;;;20.46;48.95
75538;BME280;64121;48.666;8.114;2023-05-29T07:54:38;100115.84;;;20.72;48.91
75538;BME280;64121;48.666;8.114;2023-05-29T07:57:03;100117.50;;;20.69;49.14
75538;BME280;64121;48.666;8.114;2023-05-29T07:59:30;100115.63;;;21.04;47.13
75538;BME280;64121;48.666;8.114;2023-05-29T08:01:55;100126.13;;;21.00;48.26
75538;BME280;64121;48.666;8.114;2023-05-29T08:04:21;100117.44;;;20.76;47.99
75538;BME280;64121;48.666;8.114;2023-05-29T08:06:46;100113.88;;;20.69;48.27
75538;BME280;64121;48.666;8.114;2023-05-29T08:09:11;100118.50;;;20.97;47.38
75538;BME280;64121;48.666;8.114;2023-05-29T08:11:37;100116.81;;;21.51;47.22
75538;BME280;64121;48.666;8.114;2023-05-29T08:14:02;100120.66;;;21.30;46.67
75538;BME280;64121;48.666;8.114;2023-05-29T08:16:29;100120.94;;;21.43;47.60
75538;BME280;64121;48.666;8.114;2023-05-29T08:18:54;100112.38;;;21.50;47.43
75538;BME280;64121;48.666;8.114;2023-05-29T08:21:20;100101.94;;;21.43;46.71
75538;BME280;64121;48.666;8.114;2023-05-29T08:23:45;100103.41;;;21.59;46.70
75538;BME280;64121;48.666;8.114;2023-05-29T08:26:10;100109.75;;;22.04;45.68
75538;BME280;64121;48.666;8.114;2023-05-29T08:28:36;100112.25;;;21.98;45.40
75538;BME280;64121;48.666;8.114;2023-05-29T08:31:01;100107.88;;;22.24;44.73
75538;BME280;64121;48.666;8.114;2023-05-29T08:33:28;100106.47;;;21.71;45.97
75538;BME280;64121;48.666;8.114;2023-05-29T08:35:53;100101.91;;;22.19;46.04
75538;BME280;64121;48.666;8.114;2023-05-29T08:38:19;100110.59;;;22.35;44.69
75538;BME280;64121;48.666;8.114;2023-05-29T08:40:44;100111.03;;;22.60;44.78
75538;BME280;64121;48.666;8.114;2023-05-29T08:43:17;100103.19;;;22.68;43.82
75538;BME280;64121;48.666;8.114;2023-05-29T08:45:43;100110.72;;;22.82;43.11
75538;BME280;64121;48.666;8.114;2023-05-29T08:48:09;100110.84;;;22.44;44.61
75538;BME280;64121;48.666;8.114;2023-05-29T08:50:37;100107.06;;;22.54;44.44
75538;BME280;64121;48.666;8.114;2023-05-29T08:53:06;100111.88;;;23.11;43.37
75538;BME280;64121;48.666;8.114;2023-05-29T08:55:32;100101.06;;;22.49;44.01
75538;BME280;64121;48.666;8.114;2023-05-29T08:57:58;100100.78;;;22.70;44.50
75538;BME280;64121;48.666;8.114;2023-05-29T09:00:24;100099.38;;;22.55;43.78
75538;BME280;64121;48.666;8.114;2023-05-29T09:02:49;100104.16;;;22.31;44.84
75538;BME280;64121;48.666;8.114;2023-05-29T09:05:15;100101.34;;;22.85;44.13
75538;BME280;64121;48.666;8.114;2023-05-29T09:07:41;100102.69;;;22.77;43.83
75538;BME280;64121;48.666;8.114;2023-05-29T09:10:08;100104.97;;;22.89;43.41
75538;BME280;64121;48.666;8.114;2023-05-29T09:12:34;100098.13;;;23.10;43.82
75538;BME280;64121;48.666;8.114;2023-05-29T09:15:00;100104.53;;;23.37;42.76
75538;BME280;64121;48.666;8.114;2023-05-29T09:17:30;100096.38;;;23.63;43.48
75538;BME280;64121;48.666;8.114;2023-05-29T09:19:55;100106.75;;;23.26;43.33
75538;BME280;64121;48.666;8.114;2023-05-29T09:22:21;100106.44;;;23.44;42.97
75538;BME280;64121;48.666;8.114;2023-05-29T09:24:48;100098.47;;;23.59;43.27
75538;BME280;64121;48.666;8.114;2023-05-29T09:27:14;100109.19;;;23.71;42.40
75538;BME280;64121;48.666;8.114;2023-05-29T09:29:40;100105.78;;;23.56;42.79
75538;BME280;64121;48.666;8.114;2023-05-29T09:32:06;100101.50;;;23.01;43.42
75538;BME280;64121;48.666;8.114;2023-05-29T09:34:32;100103.16;;;23.22;43.70
75538;BME280;64121;48.666;8.114;2023-05-29T09:37:01;100102.22;;;23.52;42.41
75538;BME280;64121;48.666;8.114;2023-05-29T09:39:26;100109.94;;;23.95;42.78
75538;BME280;64121;48.666;8.114;2023-05-29T09:41:53;100107.69;;;23.66;42.43
75538;BME280;64121;48.666;8.114;2023-05-29T09:44:18;100121.88;;;23.43;42.88
75538;BME280;64121;48.666;8.114;2023-05-29T09:46:44;100103.81;;;23.53;42.89
75538;BME280;64121;48.666;8.114;2023-05-29T09:49:12;100097.78;;;23.51;43.53
75538;BME280;64121;48.666;8.114;2023-05-29T09:51:37;100101.78;;;23.97;42.79
75538;BME280;64121;48.666;8.114;2023-05-29T09:54:13;100098.94;;;23.97;42.67
75538;BME280;64121;48.666;8.114;2023-05-29T09:56:39;100094.13;;;23.50;42.93
75538;BME280;64121;48.666;8.114;2023-05-29T09:59:07;100095.94;;;23.41;42.81
75538;BME280;64121;48.666;8.114;2023-05-29T10:01:35;100101.19;;;23.85;43.36
75538;BME280;64121;48.666;8.114;2023-05-29T10:04:01;100101.91;;;24.09;42.89
75538;BME280;64121;48.666;8.114;2023-05-29T10:06:27;100101.22;;;24.77;41.67
75538;BME280;64121;48.666;8.114;2023-05-29T10:08:53;100095.66;;;24.38;41.38
75538;BME280;64121;48.666;8.114;2023-05-29T10:11:21;100092.94;;;24.11;41.65
75538;BME280;64121;48.666;8.114;2023-05-29T10:13:47;100094.84;;;24.37;41.27
75538;BME280;64121;48.666;8.114;2023-05-29T10:16:15;100087.88;;;23.82;42.06
75538;BME280;64121;48.666;8.114;2023-05-29T10:18:43;100078.59;;;24.18;41.04
75538;BME280;64121;48.666;8.114;2023-05-29T10:21:11;100084.56;;;24.24;41.69
75538;BME280;64121;48.666;8.114;2023-05-29T10:23:38;100088.47;;;24.50;40.85
75538;BME280;64121;48.666;8.114;2023-05-29T10:26:10;100083.81;;;24.92;40.65
75538;BME280;64121;48.666;8.114;2023-05-29T10:28:39;100082.22;;;24.38;41.54
75538;BME280;64121;48.666;8.114;2023-05-29T10:31:09;100077.94;;;24.99;40.36
75538;BME280;64121;48.666;8.114;2023-05-29T10:33:54;100081.84;;;25.21;40.00
75538;BME280;64121;48.666;8.114;2023-05-29T10:36:28;100082.41;;;25.00;40.64
75538;BME280;64121;48.666;8.114;2023-05-29T10:38:56;100078.63;;;24.87;40.40
75538;BME280;64121;48.666;8.114;2023-05-29T10:41:29;100079.44;;;25.65;40.10
75538;BME280;64121;48.666;8.114;2023-05-29T10:43:55;100073.03;;;25.61;40.56
75538;BME280;64121;48.666;8.114;2023-05-29T10:46:21;100072.16;;;25.64;39.11
75538;BME280;64121;48.666;8.114;2023-05-29T10:48:50;100073.47;;;25.76;39.50
75538;BME280;64121;48.666;8.114;2023-05-29T10:51:25;100073.06;;;25.90;39.02
75538;BME280;64121;48.666;8.114;2023-05-29T10:53:51;100070.53;;;25.63;38.72
75538;BME280;64121;48.666;8.114;2023-05-29T10:56:21;100070.00;;;25.39;39.68
75538;BME280;64121;48.666;8.114;2023-05-29T10:58:52;100064.50;;;25.61;39.20
75538;BME280;64121;48.666;8.114;2023-05-29T11:01:21;100058.53;;;25.72;38.52
75538;BME280;64121;48.666;8.114;2023-05-29T11:03:46;100061.88;;;25.83;38.39
75538;BME280;64121;48.666;8.114;2023-05-29T11:06:19;100061.69;;;25.45;38.32
75538;BME280;64121;48.666;8.114;2023-05-29T11:08:46;100052.50;;;25.53;37.89
75538;BME280;64121;48.666;8.114;2023-05-29T11:11:12;100046.28;;;26.00;37.80
75538;BME280;64121;48.666;8.114;2023-05-29T11:13:38;100055.34;;;25.70;37.75
75538;BME280;64121;48.666;8.114;2023-05-29T11:16:19;100052.72;;;26.04;37.34
75538;BME280;64121;48.666;8.114;2023-05-29T11:18:46;100051.38;;;26.34;38.00
75538;BME280;64121;48.666;8.114;2023-05-29T11:21:23;100047.69;;;26.21;37.19
75538;BME280;64121;48.666;8.114;2023-05-29T11:23:54;100058.31;;;25.79;38.40
75538;BME280;64121;48.666;8.114;2023-05-29T11:26:23;100047.16;;;25.84;37.87
75538;BME280;64121;48.666;8.114;2023-05-29T11:28:48;100040.88;;;25.77;37.97
75538;BME280;64121;48.666;8.114;2023-05-29T11:31:15;100045.06;;;26.14;37.34
75538;BME280;64121;48.666;8.114;2023-05-29T11:33:46;100030.06;;;25.84;38.76
75538;BME280;64121;48.666;8.114;2023-05-29T11:36:14;100043.06;;;26.40;37.70
75538;BME280;64121;48.666;8.114;2023-05-29T11:38:40;100045.59;;;26.50;37.19
75538;BME280;64121;48.666;8.114;2023-05-29T11:41:06;100043.66;;;26.47;36.46
75538;BME280;64121;48.666;8.114;2023-05-29T11:43:31;100050.94;;;26.74;35.75
75538;BME280;64121;48.666;8.114;2023-05-29T11:45:57;100034.13;;;26.76;35.95
75538;BME280;64121;48.666;8.114;2023-05-29T11:48:23;100036.97;;;26.89;35.14
75538;BME280;64121;48.666;8.114;2023-05-29T11:50:48;100035.06;;;26.73;35.93
75538;BME280;64121;48.666;8.114;2023-05-29T11:53:14;100038.50;;;26.42;36.29
75538;BME280;64121;48.666;8.114;2023-05-29T11:55:40;100036.28;;;26.34;35.23
75538;BME280;64121;48.666;8.114;2023-05-29T11:58:06;100047.53;;;26.66;34.35
75538;BME280;64121;48.666;8.114;2023-05-29T12:00:33;100049.00;;;26.45;35.01
75538;BME280;64121;48.666;8.114;2023-05-29T12:02:58;100043.75;;;26.56;34.39
75538;BME280;64121;48.666;8.114;2023-05-29T12:05:24;100043.28;;;27.31;34.16
75538;BME280;64121;48.666;8.114;2023-05-29T12:07:50;100044.28;;;26.90;33.68
75538;BME280;64121;48.666;8.114;2023-05-29T12:10:17;100042.00;;;26.97;33.21
75538;BME280;64121;48.666;8.114;2023-05-29T12:12:47;100057.34;;;26.65;33.27
75538;BME280;64121;48.666;8.114;2023-05-29T12:15:12;100056.88;;;26.54;33.58
75538;BME280;64121;48.666;8.114;2023-05-29T12:17:38;100050.63;;;26.59;33.10
75538;BME280;64121;48.666;8.114;2023-05-29T12:20:04;100050.63;;;26.59;33.00
75538;BME280;64121;48.666;8.114;2023-05-29T12:22:32;100053.41;;;26.34;33.09
75538;BME280;64121;48.666;8.114;2023-05-29T12:25:03;100054.56;;;26.87;32.50
75538;BME280;64121;48.666;8.114;2023-05-29T12:27:29;100042.22;;;27.15;31.66
75538;BME280;64121;48.666;8.114;2023-05-29T12:30:00;100051.16;;;27.05;33.07
75538;BME280;64121;48.666;8.114;2023-05-29T12:32:34;100041.69;;;26.82;33.04
75538;BME280;64121;48.666;8.114;2023-05-29T12:34:59;100038.16;;;26.78;33.23
75538;BME280;64121;48.666;8.114;2023-05-29T12:37:25;100040.44;;;26.58;33.25
75538;BME280;64121;48.666;8.114;2023-05-29T12:40:08;100045.34;;;26.45;33.76
75538;BME280;64121;48.666;8.114;2023-05-29T12:42:34;100038.25;;;26.75;32.77
75538;BME280;64121;48.666;8.114;2023-05-29T12:45:02;100051.13;;;26.92;32.63
75538;BME280;64121;48.666;8.114;2023-05-29T12:47:27;100048.06;;;26.99;32.59
75538;BME280;64121;48.666;8.114;2023-05-29T12:49:53;100042.94;;;26.56;32.45